createdAt,value
2023-05-14T00:00:30.989Z,2.5
2023-05-14T00:01:45.310Z,3
2023-05-14T00:02:59.592Z,2.6
2023-05-14T00:04:14.001Z,2.4
2023-05-14T00:05:28.406Z,2.7
2023-05-14T00:06:42.743Z,2.7
2023-05-14T00:07:57.006Z,2.6
2023-05-14T00:09:11.292Z,2.4
2023-05-14T00:10:25.697Z,2.3
2023-05-14T00:11:40.029Z,2.7
2023-05-14T00:12:54.309Z,2.8
2023-05-14T00:14:08.586Z,2.9
2023-05-14T00:15:22.990Z,2.6
2023-05-14T00:16:37.309Z,2.7
2023-05-14T00:17:51.594Z,2.5
2023-05-14T00:19:05.882Z,2.9
2023-05-14T00:20:20.291Z,2.7
2023-05-14T00:21:34.606Z,3.5
2023-05-14T00:22:48.893Z,2.9
2023-05-14T00:24:03.178Z,2.5
2023-05-14T00:25:17.571Z,2.5
2023-05-14T00:27:46.183Z,3.1
2023-05-14T00:29:00.589Z,2.5
2023-05-14T00:30:15.001Z,2.8
2023-05-14T00:31:29.313Z,2.9
2023-05-14T00:32:43.594Z,2.2
2023-05-14T00:33:57.884Z,2.7
2023-05-14T00:35:12.292Z,3
2023-05-14T00:36:26.611Z,2.7
2023-05-14T00:37:40.889Z,2.4
2023-05-14T00:38:55.163Z,3.2
2023-05-14T00:40:09.583Z,3.1
2023-05-14T00:41:23.891Z,2.8
2023-05-14T00:42:38.186Z,2.8
2023-05-14T00:43:52.463Z,2.9
2023-05-14T00:46:21.186Z,2.3
2023-05-14T00:47:35.481Z,2.8
2023-05-14T00:48:49.748Z,3.1
2023-05-14T00:50:04.156Z,2.8
2023-05-14T00:51:18.485Z,2.4
2023-05-14T00:52:32.758Z,2.3
2023-05-14T00:53:47.170Z,2.3
2023-05-14T00:55:01.578Z,2.6
2023-05-14T00:56:15.893Z,2.7
2023-05-14T00:57:30.173Z,2.9
2023-05-14T00:58:44.590Z,2.8
2023-05-14T00:59:58.984Z,2.3
2023-05-14T01:01:13.312Z,2.4
2023-05-14T01:02:27.603Z,2.7
2023-05-14T01:03:41.883Z,2.8
2023-05-14T01:04:56.288Z,2.8
2023-05-14T01:06:10.604Z,3.1
2023-05-14T01:07:24.885Z,2.6
2023-05-14T01:08:39.169Z,2.6
2023-05-14T01:09:53.583Z,2.2
2023-05-14T01:11:07.901Z,3.2
2023-05-14T01:12:22.179Z,2.7
2023-05-14T01:13:36.458Z,3
2023-05-14T01:14:50.865Z,2.5
2023-05-14T01:16:05.196Z,2.6
2023-05-14T01:17:19.478Z,3.5
2023-05-14T01:18:33.874Z,2.7
2023-05-14T01:19:48.284Z,2.7
2023-05-14T01:21:02.614Z,2.8
2023-05-14T01:22:16.891Z,2.5
2023-05-14T01:23:31.166Z,2.3
2023-05-14T01:24:45.572Z,2.6
2023-05-14T01:25:59.887Z,2.9
2023-05-14T01:27:14.186Z,2.9
2023-05-14T01:28:28.452Z,2.9
2023-05-14T01:29:42.865Z,3.1
2023-05-14T01:30:57.185Z,2.8
2023-05-14T01:32:11.476Z,2.4
2023-05-14T01:33:25.760Z,2.8
2023-05-14T01:34:40.150Z,2.9
2023-05-14T01:35:54.491Z,2.6
2023-05-14T01:37:08.769Z,3.2
2023-05-14T01:38:23.156Z,2.9
2023-05-14T01:39:37.576Z,2.7
2023-05-14T01:40:51.886Z,2.9
2023-05-14T01:42:06.172Z,2.7
2023-05-14T01:43:20.460Z,2.8
2023-05-14T01:44:34.870Z,2.8
2023-05-14T01:45:49.178Z,3.2
2023-05-14T01:47:03.468Z,2.7
2023-05-14T01:48:17.741Z,2.8
2023-05-14T01:49:32.149Z,3.2
2023-05-14T01:50:46.480Z,2.9
2023-05-14T01:52:00.762Z,3.7
2023-05-14T01:53:15.041Z,2.8
2023-05-14T01:54:29.436Z,2.7
2023-05-14T01:55:43.766Z,3
2023-05-14T01:56:58.057Z,2.8
2023-05-14T01:58:12.338Z,2.8
2023-05-14T01:59:26.735Z,2.8
2023-05-14T02:00:41.056Z,2.5
2023-05-14T02:01:55.333Z,3.1
2023-05-14T02:03:09.747Z,2.6
2023-05-14T02:04:24.152Z,2.7
2023-05-14T02:05:38.465Z,3.1
2023-05-14T02:06:52.750Z,3.4
2023-05-14T02:08:07.029Z,2.9
2023-05-14T02:09:21.440Z,2.9
2023-05-14T02:10:35.770Z,3.1
2023-05-14T02:11:50.044Z,2.7
2023-05-14T02:13:04.322Z,3.3
2023-05-14T02:14:18.737Z,2.4
2023-05-14T02:15:33.064Z,2.8
2023-05-14T02:16:47.337Z,3.3
2023-05-14T02:18:01.625Z,3
2023-05-14T02:19:16.017Z,3.2
2023-05-14T02:20:30.357Z,2.7
2023-05-14T02:21:44.636Z,2.9
2023-05-14T02:22:58.912Z,3.3
2023-05-14T02:24:13.310Z,2.7
2023-05-14T02:25:27.641Z,2.6
2023-05-14T02:26:41.919Z,3.2
2023-05-14T02:29:10.739Z,2.8
2023-05-14T02:30:25.063Z,3.4
2023-05-14T02:31:39.330Z,2.9
2023-05-14T02:32:53.628Z,3.6
2023-05-14T02:34:08.021Z,2.6
2023-05-14T02:35:22.348Z,2.8
2023-05-14T02:36:36.624Z,2.7
2023-05-14T02:37:50.913Z,2.9
2023-05-14T02:39:05.325Z,2.6
2023-05-14T02:40:19.648Z,2.7
2023-05-14T02:41:33.927Z,2.4
2023-05-14T02:42:48.198Z,3.3
2023-05-14T02:44:02.618Z,3.3
2023-05-14T02:45:16.887Z,2.9
2023-05-14T02:46:31.170Z,3.1
2023-05-14T02:47:45.565Z,3
2023-05-14T02:48:59.968Z,2.8
2023-05-14T02:50:14.296Z,3
2023-05-14T02:51:28.572Z,2.9
2023-05-14T02:52:42.810Z,3
2023-05-14T02:53:57.127Z,2.9
2023-05-14T02:55:11.360Z,3.2
2023-05-14T02:56:25.581Z,3
2023-05-14T02:57:39.822Z,2.6
2023-05-14T02:58:54.095Z,3.8
2023-05-14T03:00:08.510Z,3.4
2023-05-14T03:01:22.743Z,3.7
2023-05-14T03:02:36.972Z,3.3
2023-05-14T03:03:51.187Z,2.9
2023-05-14T03:05:05.553Z,3.3
2023-05-14T03:06:19.854Z,2.6
2023-05-14T03:07:34.106Z,2.8
2023-05-14T03:08:48.313Z,3
2023-05-14T03:10:02.547Z,3
2023-05-14T03:11:16.769Z,2.9
2023-05-14T03:12:31.067Z,2.6
2023-05-14T03:13:45.308Z,3.1
2023-05-14T03:14:59.543Z,3.2
2023-05-14T03:16:13.763Z,3.4
2023-05-14T03:17:28.000Z,2.7
2023-05-14T03:18:42.300Z,3.2
2023-05-14T03:19:56.530Z,3
2023-05-14T03:21:10.773Z,3.7
2023-05-14T03:22:25.120Z,3.3
2023-05-14T03:23:39.338Z,3
2023-05-14T03:24:53.637Z,3.3
2023-05-14T03:26:07.870Z,2.6
2023-05-14T03:27:22.109Z,3.1
2023-05-14T03:28:36.330Z,2.7
2023-05-14T03:29:50.568Z,3
2023-05-14T03:31:04.857Z,2.8
2023-05-14T03:32:19.104Z,2.8
2023-05-14T03:33:33.325Z,3.1
2023-05-14T03:34:47.553Z,3.2
2023-05-14T03:36:01.783Z,3.1
2023-05-14T03:37:16.073Z,2.7
2023-05-14T03:38:30.324Z,3.2
2023-05-14T03:39:44.539Z,3.1
2023-05-14T03:40:58.771Z,2.9
2023-05-14T03:42:13.006Z,3.2
2023-05-14T03:43:27.300Z,2.9
2023-05-14T03:44:41.534Z,3.5
2023-05-14T03:45:55.776Z,3.2
2023-05-14T03:47:09.993Z,3.3
2023-05-14T03:48:24.217Z,3
2023-05-14T03:49:38.530Z,3
2023-05-14T03:50:52.768Z,3.2
2023-05-14T03:52:07.111Z,3.2
2023-05-14T03:53:21.334Z,3.3
2023-05-14T03:54:35.559Z,3.2
2023-05-14T03:55:49.870Z,3.4
2023-05-14T03:57:04.112Z,3.6
2023-05-14T03:58:18.333Z,3.9
2023-05-14T03:59:32.550Z,3.7
2023-05-14T04:00:46.792Z,3.2
2023-05-14T04:02:01.093Z,3.5
2023-05-14T04:03:15.329Z,3.5
2023-05-14T04:04:29.550Z,3.3
2023-05-14T04:05:43.778Z,3
2023-05-14T04:06:57.996Z,3.8
2023-05-14T04:08:12.314Z,2.9
2023-05-14T04:09:26.541Z,3.5
2023-05-14T04:10:40.771Z,3.3
2023-05-14T04:11:55.113Z,3.4
2023-05-14T04:13:09.345Z,2.7
2023-05-14T04:14:23.649Z,3.6
2023-05-14T04:15:37.881Z,3.4
2023-05-14T04:16:52.113Z,3.4
2023-05-14T04:18:06.348Z,3
2023-05-14T04:19:20.569Z,3.7
2023-05-14T04:20:34.875Z,3.1
2023-05-14T04:21:49.111Z,4.4
2023-05-14T04:23:03.328Z,3.1
2023-05-14T04:24:17.555Z,3.4
2023-05-14T04:25:31.790Z,3.4
2023-05-14T04:26:46.087Z,3.7
2023-05-14T04:28:00.337Z,2.7
2023-05-14T04:29:14.557Z,3.3
2023-05-14T04:30:28.788Z,3.5
2023-05-14T04:31:43.011Z,3.3
2023-05-14T04:32:57.304Z,3.1
2023-05-14T04:34:11.562Z,3.2
2023-05-14T04:35:25.777Z,3.7
2023-05-14T04:36:40.014Z,3.8
2023-05-14T04:37:54.240Z,3.5
2023-05-14T04:39:08.536Z,3.5
2023-05-14T04:40:22.779Z,3.7
2023-05-14T04:41:37.005Z,3.3
2023-05-14T04:42:51.236Z,3.3
2023-05-14T04:44:05.579Z,3.4
2023-05-14T04:45:19.869Z,3.4
2023-05-14T04:46:34.122Z,3.2
2023-05-14T04:47:48.339Z,3.2
2023-05-14T04:49:02.578Z,3.8
2023-05-14T04:50:16.806Z,3.8
2023-05-14T04:51:31.091Z,3.4
2023-05-14T04:52:45.334Z,2.6
2023-05-14T04:53:59.563Z,2.9
2023-05-14T04:55:13.783Z,3.3
2023-05-14T04:56:28.020Z,3.2
2023-05-14T04:57:42.319Z,3.7
2023-05-14T04:58:56.560Z,2.9
2023-05-14T05:00:10.777Z,3.2
2023-05-14T05:01:25.007Z,2.9
2023-05-14T05:02:39.238Z,3.2
2023-05-14T05:03:53.547Z,3.2
2023-05-14T05:05:07.783Z,3.8
2023-05-14T05:06:21.998Z,3.2
2023-05-14T05:07:36.235Z,4.1
2023-05-14T05:08:50.464Z,3.3
2023-05-14T05:10:04.756Z,3.1
2023-05-14T05:11:19.003Z,3.3
2023-05-14T05:12:33.227Z,3.2
2023-05-14T05:13:47.450Z,3.1
2023-05-14T05:15:01.690Z,2.8
2023-05-14T05:16:15.977Z,3.3
2023-05-14T05:17:30.225Z,3
2023-05-14T05:18:44.456Z,3.5
2023-05-14T05:19:58.669Z,3.3
2023-05-14T05:21:12.892Z,3
2023-05-14T05:22:27.206Z,2.9
2023-05-14T05:23:41.442Z,3.5
2023-05-14T05:24:55.663Z,3.3
2023-05-14T05:26:09.902Z,3.1
2023-05-14T05:27:24.116Z,3.6
2023-05-14T05:28:38.421Z,3.5
2023-05-14T05:29:52.714Z,3.9
2023-05-14T05:31:07.015Z,3.2
2023-05-14T05:32:20.306Z,3.7
2023-05-14T05:33:34.609Z,3.4
2023-05-14T05:34:48.836Z,3.2
2023-05-14T05:36:03.068Z,3.3
2023-05-14T05:37:17.301Z,2.8
2023-05-14T05:38:31.517Z,3.2
2023-05-14T05:39:45.818Z,3.2
2023-05-14T05:41:00.062Z,3.2
2023-05-14T05:42:14.293Z,3.5
2023-05-14T05:43:28.522Z,3.4
2023-05-14T05:44:42.749Z,3.1
2023-05-14T05:45:57.048Z,4.1
2023-05-14T05:47:11.296Z,3.4
2023-05-14T05:48:25.521Z,3
2023-05-14T05:49:39.746Z,3.2
2023-05-14T05:50:53.974Z,3.5
2023-05-14T05:52:08.268Z,3.1
2023-05-14T05:53:22.510Z,3
2023-05-14T05:54:36.726Z,3.3
2023-05-14T05:55:50.961Z,3.8
2023-05-14T05:57:05.179Z,3.4
2023-05-14T05:58:19.492Z,3.1
2023-05-14T05:59:33.721Z,3.3
2023-05-14T06:00:47.950Z,3.3
2023-05-14T06:02:02.172Z,3.4
2023-05-14T06:03:16.468Z,3.2
2023-05-14T06:04:30.767Z,4
2023-05-14T06:05:45.048Z,3.4
2023-05-14T06:06:59.329Z,3.6
2023-05-14T06:08:12.630Z,3.4
2023-05-14T06:09:26.931Z,3.7
2023-05-14T06:10:41.160Z,3.8
2023-05-14T06:11:55.389Z,3.3
2023-05-14T06:13:09.631Z,3.1
2023-05-14T06:14:23.850Z,3.4
2023-05-14T06:15:38.146Z,3.1
2023-05-14T06:16:52.387Z,3.3
2023-05-14T06:18:06.605Z,3.9
2023-05-14T06:19:20.847Z,3.5
2023-05-14T06:20:35.058Z,3.2
2023-05-14T06:21:49.374Z,3.2
2023-05-14T06:23:03.600Z,3.1
2023-05-14T06:24:17.832Z,3.2
2023-05-14T06:25:32.058Z,3.3
2023-05-14T06:26:46.000Z,3.6
2023-05-14T06:28:00.591Z,3.1
2023-05-14T06:29:14.822Z,3.6
2023-05-14T06:30:29.060Z,3.8
2023-05-14T06:31:43.274Z,3.4
2023-05-14T06:32:57.510Z,3.9
2023-05-14T06:34:11.816Z,3.2
2023-05-14T06:35:26.058Z,3
2023-05-14T06:36:40.278Z,2.8
2023-05-14T06:37:54.506Z,3.1
2023-05-14T06:39:08.783Z,2.7
2023-05-14T06:40:23.079Z,3.5
2023-05-14T06:41:37.377Z,3.1
2023-05-14T06:42:50.717Z,3.3
2023-05-14T06:44:04.020Z,3
2023-05-14T06:45:18.265Z,3.3
2023-05-14T06:46:32.481Z,3
2023-05-14T06:47:46.706Z,3.4
2023-05-14T06:49:00.946Z,3.5
2023-05-14T06:50:15.248Z,3.7
2023-05-14T06:51:29.486Z,4.1
2023-05-14T06:52:43.000Z,3.3
2023-05-14T06:53:57.923Z,3.3
2023-05-14T06:55:12.154Z,3.4
2023-05-14T06:56:26.464Z,3.2
2023-05-14T06:57:40.697Z,3.2
2023-05-14T06:58:54.921Z,3.4
2023-05-14T07:00:09.156Z,3.5
2023-05-14T07:01:23.374Z,2.7
2023-05-14T07:02:37.685Z,3.7
2023-05-14T07:03:51.922Z,2.6
2023-05-14T07:05:06.147Z,2.6
2023-05-14T07:06:20.376Z,2.7
2023-05-14T07:07:34.604Z,2.9
2023-05-14T07:08:48.899Z,2.7
2023-05-14T07:10:03.152Z,3.3
2023-05-14T07:11:17.372Z,3.1
2023-05-14T07:12:31.586Z,2.7
2023-05-14T07:13:45.813Z,2.7
2023-05-14T07:15:00.179Z,3.1
2023-05-14T07:16:14.457Z,2.8
2023-05-14T07:17:27.766Z,2.8
2023-05-14T07:18:41.985Z,2.8
2023-05-14T07:19:56.286Z,2.8
2023-05-14T07:21:10.521Z,3.2
2023-05-14T07:22:24.757Z,2.6
2023-05-14T07:23:38.971Z,3.4
2023-05-14T07:24:53.210Z,2.7
2023-05-14T07:26:07.506Z,3
2023-05-14T07:27:21.748Z,2.8
2023-05-14T07:28:35.982Z,3.1
2023-05-14T07:29:50.210Z,3
2023-05-14T07:31:04.419Z,3
2023-05-14T07:32:18.735Z,3.4
2023-05-14T07:33:32.975Z,3.1
2023-05-14T07:34:47.205Z,2.8
2023-05-14T07:36:01.429Z,3
2023-05-14T07:37:15.657Z,2.4
2023-05-14T07:38:29.960Z,3.2
2023-05-14T07:39:44.197Z,2.6
2023-05-14T07:42:12.653Z,2.8
2023-05-14T07:43:26.875Z,2.9
2023-05-14T07:44:41.167Z,2.6
2023-05-14T07:45:55.422Z,2.6
2023-05-14T07:47:09.638Z,2.7
2023-05-14T07:48:23.934Z,2.3
2023-05-14T07:49:37.246Z,2.5
2023-05-14T07:50:51.535Z,2.5
2023-05-14T07:52:04.833Z,2.5
2023-05-14T07:53:19.053Z,2.8
2023-05-14T07:54:33.372Z,2.7
2023-05-14T07:55:47.612Z,2.6
2023-05-14T07:57:01.825Z,2.4
2023-05-14T07:58:16.062Z,2.5
2023-05-14T07:59:30.278Z,2.2
2023-05-14T08:00:44.585Z,3
2023-05-14T08:01:58.825Z,3
2023-05-14T08:03:13.056Z,2.7
2023-05-14T08:04:27.272Z,2.6
2023-05-14T08:05:41.508Z,2.2
2023-05-14T08:06:55.805Z,2.1
2023-05-14T08:08:10.047Z,2.7
2023-05-14T08:09:24.274Z,2.3
2023-05-14T08:10:38.507Z,2.4
2023-05-14T08:11:52.729Z,2.7
2023-05-14T08:13:07.036Z,2.5
2023-05-14T08:14:21.261Z,2.5
2023-05-14T08:15:35.500Z,2.6
2023-05-14T08:16:49.711Z,2.3
2023-05-14T08:18:03.954Z,2.2
2023-05-14T08:19:18.249Z,2
2023-05-14T08:20:32.495Z,2.4
2023-05-14T08:21:46.704Z,2.3
2023-05-14T08:23:00.996Z,2.1
2023-05-14T08:24:14.323Z,2
2023-05-14T08:25:28.620Z,2.3
2023-05-14T08:26:41.905Z,1.8
2023-05-14T08:27:56.134Z,2
2023-05-14T08:29:10.433Z,1.8
2023-05-14T08:30:24.678Z,2
2023-05-14T08:31:38.896Z,2.2
2023-05-14T08:32:53.135Z,2.1
2023-05-14T08:34:07.354Z,1.8
2023-05-14T08:35:21.663Z,2.2
2023-05-14T08:36:35.906Z,2
2023-05-14T08:37:50.135Z,2.3
2023-05-14T08:39:04.359Z,2.3
2023-05-14T08:41:32.873Z,1.9
2023-05-14T08:42:47.127Z,1.9
2023-05-14T08:44:01.359Z,2
2023-05-14T08:45:15.586Z,2.2
2023-05-14T08:46:29.809Z,1.9
2023-05-14T08:47:44.103Z,2.1
2023-05-14T08:48:58.345Z,2.2
2023-05-14T08:50:12.578Z,1.8
2023-05-14T08:51:26.794Z,2.3
2023-05-14T08:52:41.025Z,2
2023-05-14T08:53:55.328Z,2.2
2023-05-14T08:55:09.572Z,2
2023-05-14T08:56:23.805Z,2.3
2023-05-14T08:57:38.080Z,2
2023-05-14T08:58:51.379Z,1.8
2023-05-14T09:00:05.626Z,1.8
2023-05-14T09:01:19.857Z,2.3
2023-05-14T09:02:34.072Z,2
2023-05-14T09:03:48.309Z,2
2023-05-14T09:05:02.609Z,2.1
2023-05-14T09:06:16.847Z,2.2
2023-05-14T09:07:31.077Z,1.8
2023-05-14T09:08:45.300Z,2.2
2023-05-14T09:09:59.536Z,1.8
2023-05-14T09:11:13.838Z,2.1
2023-05-14T09:12:28.069Z,2.1
2023-05-14T09:13:42.308Z,2
2023-05-14T09:14:56.518Z,2.4
2023-05-14T09:16:10.744Z,2
2023-05-14T09:17:25.050Z,1.9
2023-05-14T09:18:39.305Z,1.7
2023-05-14T09:19:53.528Z,2.5
2023-05-14T09:21:07.747Z,2.2
2023-05-14T09:22:21.974Z,2.1
2023-05-14T09:23:36.288Z,2.2
2023-05-14T09:24:50.519Z,1.9
2023-05-14T09:26:04.759Z,2.1
2023-05-14T09:27:18.979Z,1.9
2023-05-14T09:28:33.205Z,2
2023-05-14T09:29:47.560Z,1.8
2023-05-14T09:31:01.857Z,2.2
2023-05-14T09:32:15.139Z,2.2
2023-05-14T09:33:29.364Z,2.1
2023-05-14T09:34:43.677Z,1.9
2023-05-14T09:35:57.908Z,2.5
2023-05-14T09:37:12.152Z,2.4
2023-05-14T09:38:26.370Z,2
2023-05-14T09:39:40.607Z,2
2023-05-14T09:40:54.902Z,1.9
2023-05-14T09:42:09.149Z,1.9
2023-05-14T09:43:23.376Z,1.8
2023-05-14T09:44:37.594Z,1.9
2023-05-14T09:45:51.821Z,2.3
2023-05-14T09:47:06.133Z,1.9
2023-05-14T09:48:20.364Z,1.9
2023-05-14T09:49:34.602Z,1.8
2023-05-14T09:50:48.829Z,2.3
2023-05-14T09:52:03.041Z,2.3
2023-05-14T09:53:17.350Z,2.4
2023-05-14T09:54:31.587Z,1.7
2023-05-14T09:55:45.816Z,2.3
2023-05-14T09:57:00.044Z,2
2023-05-14T09:58:14.280Z,1.9
2023-05-14T09:59:28.571Z,2.1
2023-05-14T10:00:42.816Z,1.7
2023-05-14T10:01:57.049Z,1.8
2023-05-14T10:03:11.339Z,1.9
2023-05-14T10:04:24.672Z,2
2023-05-14T10:05:38.971Z,1.7
2023-05-14T10:06:52.267Z,1.9
2023-05-14T10:08:06.485Z,1.7
2023-05-14T10:09:20.784Z,1.8
2023-05-14T10:10:35.023Z,2
2023-05-14T10:11:49.268Z,1.9
2023-05-14T10:13:03.481Z,2
2023-05-14T10:14:17.718Z,2
2023-05-14T10:15:32.009Z,2.1
2023-05-14T10:16:46.250Z,2
2023-05-14T10:18:00.489Z,2.2
2023-05-14T10:19:14.703Z,2.1
2023-05-14T10:20:28.933Z,1.9
2023-05-14T10:21:43.242Z,2.1
2023-05-14T10:22:57.489Z,2.2
2023-05-14T10:24:11.706Z,1.9
2023-05-14T10:25:26.058Z,1.7
2023-05-14T10:26:40.285Z,1.6
2023-05-14T10:27:54.591Z,1.9
2023-05-14T10:29:08.822Z,1.7
2023-05-14T10:30:23.061Z,1.7
2023-05-14T10:31:37.283Z,1.7
2023-05-14T10:32:51.514Z,2
2023-05-14T10:34:05.820Z,1.9
2023-05-14T10:35:20.058Z,1.9
2023-05-14T10:36:34.294Z,2
2023-05-14T10:37:48.506Z,1.9
2023-05-14T10:39:02.738Z,1.7
2023-05-14T10:41:31.282Z,2.2
2023-05-14T10:42:45.513Z,1.9
2023-05-14T10:43:59.744Z,1.7
2023-05-14T10:45:13.963Z,1.9
2023-05-14T10:46:28.268Z,1.4
2023-05-14T10:47:42.518Z,1.6
2023-05-14T10:48:56.735Z,1.7
2023-05-14T10:50:10.958Z,1.8
2023-05-14T10:51:25.201Z,1.8
2023-05-14T10:52:39.494Z,1.9
2023-05-14T10:53:53.731Z,2.1
2023-05-14T10:55:08.103Z,1.6
2023-05-14T10:56:22.339Z,2.2
2023-05-14T10:58:50.980Z,1.6
2023-05-14T11:00:05.238Z,1.6
2023-05-14T11:01:19.467Z,1.9
2023-05-14T11:02:33.676Z,1.9
2023-05-14T11:03:47.910Z,1.9
2023-05-14T11:05:02.218Z,2
2023-05-14T11:06:16.464Z,2.1
2023-05-14T11:07:30.686Z,2
2023-05-14T11:08:44.902Z,1.9
2023-05-14T11:09:59.133Z,1.4
2023-05-14T11:11:13.446Z,1.9
2023-05-14T11:12:27.694Z,1.8
2023-05-14T11:13:41.914Z,2
2023-05-14T11:14:56.146Z,1.9
2023-05-14T11:16:10.373Z,1.7
2023-05-14T11:17:24.672Z,2.1
2023-05-14T11:18:38.904Z,1.8
2023-05-14T11:19:53.262Z,1.8
2023-05-14T11:21:07.496Z,2
2023-05-14T11:22:21.863Z,2
2023-05-14T11:23:36.154Z,1.5
2023-05-14T11:24:50.413Z,1.5
2023-05-14T11:26:04.748Z,1.4
2023-05-14T11:27:18.987Z,1.5
2023-05-14T11:28:33.209Z,1.6
2023-05-14T11:29:47.507Z,1.4
2023-05-14T11:31:01.763Z,1.3
2023-05-14T11:32:15.979Z,1.5
2023-05-14T11:33:30.203Z,1.5
2023-05-14T11:34:44.437Z,1.4
2023-05-14T11:35:58.731Z,1.7
2023-05-14T11:37:12.973Z,1.5
2023-05-14T11:38:27.208Z,1.6
2023-05-14T11:39:41.421Z,2
2023-05-14T11:40:55.667Z,1.4
2023-05-14T11:42:09.950Z,1.6
2023-05-14T11:43:24.204Z,1.4
2023-05-14T11:44:38.549Z,1.5
2023-05-14T11:45:52.782Z,2
2023-05-14T11:47:07.156Z,1.6
2023-05-14T11:48:21.449Z,1.9
2023-05-14T11:49:35.684Z,1.9
2023-05-14T11:50:49.906Z,1.7
2023-05-14T11:52:04.150Z,1.8
2023-05-14T11:53:18.365Z,1.8
2023-05-14T11:54:32.670Z,1.6
2023-05-14T11:55:46.920Z,1.8
2023-05-14T11:57:01.136Z,1.8
2023-05-14T11:58:15.369Z,1.8
2023-05-14T11:59:29.585Z,1.7
2023-05-14T12:00:43.894Z,1.9
2023-05-14T12:01:58.124Z,1.8
2023-05-14T12:03:12.359Z,1.6
2023-05-14T12:04:26.589Z,1.9
2023-05-14T12:05:40.818Z,1.6
2023-05-14T12:06:55.107Z,1.7
2023-05-14T12:08:09.352Z,1.7
2023-05-14T12:09:23.578Z,1.6
2023-05-14T12:10:37.805Z,2
2023-05-14T12:11:52.037Z,1.8
2023-05-14T12:13:06.346Z,1.6
2023-05-14T12:14:20.593Z,1.9
2023-05-14T12:15:34.803Z,1.7
2023-05-14T12:16:49.177Z,1.8
2023-05-14T12:18:03.418Z,1.7
2023-05-14T12:19:17.722Z,1.6
2023-05-14T12:20:31.953Z,1.7
2023-05-14T12:21:46.188Z,1.4
2023-05-14T12:23:00.408Z,1.7
2023-05-14T12:24:14.646Z,1.4
2023-05-14T12:25:28.939Z,1.7
2023-05-14T12:26:43.185Z,1.4
2023-05-14T12:27:57.415Z,1.5
2023-05-14T12:29:11.643Z,1.7
2023-05-14T12:30:25.860Z,1.6
2023-05-14T12:31:40.172Z,1.7
2023-05-14T12:32:54.407Z,1.4
2023-05-14T12:34:08.637Z,1.8
2023-05-14T12:35:22.862Z,1.4
2023-05-14T12:36:37.207Z,1.8
2023-05-14T12:37:51.515Z,1.7
2023-05-14T12:39:05.764Z,1.6
2023-05-14T12:40:19.978Z,1.4
2023-05-14T12:41:34.214Z,1.4
2023-05-14T12:42:48.444Z,1.7
2023-05-14T12:44:02.751Z,1.7
2023-05-14T12:45:16.990Z,1.4
2023-05-14T12:46:31.199Z,1.6
2023-05-14T12:47:45.437Z,1.7
2023-05-14T12:48:59.655Z,1.4
2023-05-14T12:50:13.960Z,1.2
2023-05-14T12:51:28.211Z,1.5
2023-05-14T12:52:42.426Z,1.4
2023-05-14T12:53:56.661Z,1.6
2023-05-14T12:55:10.884Z,1.4
2023-05-14T12:56:25.190Z,1.4
2023-05-14T12:57:39.423Z,1.3
2023-05-14T12:58:53.662Z,1.7
2023-05-14T13:00:07.887Z,1.5
2023-05-14T13:01:22.102Z,1.7
2023-05-14T13:02:36.410Z,1.7
2023-05-14T13:03:50.658Z,1.7
2023-05-14T13:05:04.871Z,1.6
2023-05-14T13:06:19.094Z,1.6
2023-05-14T13:07:33.320Z,1.6
2023-05-14T13:08:47.632Z,1.5
2023-05-14T13:10:01.872Z,1.3
2023-05-14T13:11:16.092Z,1.5
2023-05-14T13:12:30.330Z,1.5
2023-05-14T13:13:44.548Z,1.8
2023-05-14T13:14:58.860Z,1.4
2023-05-14T13:16:13.101Z,1.8
2023-05-14T13:17:27.313Z,1.6
2023-05-14T13:18:41.560Z,1.4
2023-05-14T13:19:55.770Z,1.7
2023-05-14T13:21:10.069Z,1.5
2023-05-14T13:22:24.374Z,1.3
2023-05-14T13:23:37.669Z,1.5
2023-05-14T13:24:51.908Z,1.7
2023-05-14T13:26:06.211Z,1.3
2023-05-14T13:27:20.438Z,1.4
2023-05-14T13:28:34.680Z,1.3
2023-05-14T13:29:48.897Z,1.4
2023-05-14T13:31:03.118Z,1.4
2023-05-14T13:32:17.430Z,1.7
2023-05-14T13:33:31.656Z,1.6
2023-05-14T13:34:45.897Z,1.3
2023-05-14T13:36:00.112Z,1.6
2023-05-14T13:37:14.340Z,1.7
2023-05-14T13:38:28.637Z,1.7
2023-05-14T13:39:42.896Z,1.7
2023-05-14T13:40:57.114Z,1.7
2023-05-14T13:42:11.333Z,1.6
2023-05-14T13:43:25.567Z,1.8
2023-05-14T13:44:39.861Z,1.6
2023-05-14T13:45:54.103Z,1.5
2023-05-14T13:47:08.341Z,1.4
2023-05-14T13:48:22.567Z,1.7
2023-05-14T13:49:36.798Z,1.6
2023-05-14T13:50:51.083Z,1.5
2023-05-14T13:52:05.333Z,1.2
2023-05-14T13:53:19.561Z,1.5
2023-05-14T13:54:33.844Z,1.5
2023-05-14T13:55:47.186Z,1.4
2023-05-14T13:57:01.459Z,1.3
2023-05-14T13:58:14.765Z,1.7
2023-05-14T13:59:28.979Z,1.4
2023-05-14T14:00:43.282Z,1.8
2023-05-14T14:01:57.519Z,1.4
2023-05-14T14:03:11.760Z,1.5
2023-05-14T14:04:25.976Z,1.4
2023-05-14T14:05:40.214Z,1.6
2023-05-14T14:06:54.513Z,1.5
2023-05-14T14:08:08.761Z,1.4
2023-05-14T14:09:22.984Z,1.4
2023-05-14T14:10:37.202Z,1.4
2023-05-14T14:11:51.436Z,1.7
2023-05-14T14:13:05.734Z,1.4
2023-05-14T14:14:19.968Z,1.6
2023-05-14T14:15:34.193Z,1.3
2023-05-14T14:16:48.423Z,1.6
2023-05-14T14:18:02.664Z,1.7
2023-05-14T14:19:16.959Z,1.7
2023-05-14T14:20:31.190Z,1.5
2023-05-14T14:21:45.415Z,1.4
2023-05-14T14:22:59.656Z,1.4
2023-05-14T14:24:13.873Z,1.5
2023-05-14T14:25:28.188Z,1.4
2023-05-14T14:26:42.417Z,1.5
2023-05-14T14:27:56.648Z,1.2
2023-05-14T14:29:10.922Z,1.5
2023-05-14T14:30:24.264Z,1.5
2023-05-14T14:31:38.561Z,1.5
2023-05-14T14:32:52.842Z,1.5
2023-05-14T14:34:07.128Z,1.5
2023-05-14T14:35:21.407Z,1.7
2023-05-14T14:36:35.700Z,1.1
2023-05-14T14:37:49.986Z,1.5
2023-05-14T14:39:04.269Z,1.6
2023-05-14T14:40:18.561Z,1.3
2023-05-14T14:41:32.846Z,1.5
2023-05-14T14:42:47.150Z,2.4
2023-05-14T14:44:01.434Z,1.7
2023-05-14T14:45:15.699Z,1.4
2023-05-14T14:46:29.034Z,1.6
2023-05-14T14:47:43.333Z,1.6
2023-05-14T14:48:57.629Z,1.5
2023-05-14T14:50:11.901Z,1.7
2023-05-14T14:51:25.212Z,1.5
2023-05-14T14:52:39.498Z,1.3
2023-05-14T14:53:53.756Z,1.6
2023-05-14T14:55:07.964Z,1.5
2023-05-14T14:56:22.201Z,1.3
2023-05-14T14:57:36.420Z,1.5
2023-05-14T14:58:50.716Z,1.6
2023-05-14T15:00:04.971Z,1.5
2023-05-14T15:01:19.194Z,1.4
2023-05-14T15:02:33.413Z,1.5
2023-05-14T15:03:47.641Z,1.5
2023-05-14T15:05:01.945Z,1.4
2023-05-14T15:06:16.186Z,1.2
2023-05-14T15:07:30.406Z,1.3
2023-05-14T15:08:44.639Z,1.5
2023-05-14T15:09:58.876Z,1.5
2023-05-14T15:11:13.163Z,1.3
2023-05-14T15:12:27.411Z,1.5
2023-05-14T15:13:41.645Z,1.3
2023-05-14T15:14:55.853Z,1.4
2023-05-14T15:16:10.082Z,1.5
2023-05-14T15:17:24.381Z,1.6
2023-05-14T15:18:38.634Z,1.6
2023-05-14T15:19:52.876Z,1.3
2023-05-14T15:21:07.091Z,1.4
2023-05-14T15:22:21.364Z,1.6
2023-05-14T15:23:35.665Z,1.6
2023-05-14T15:24:49.943Z,1.7
2023-05-14T15:26:03.251Z,1.5
2023-05-14T15:27:17.482Z,1.2
2023-05-14T15:28:31.779Z,1
2023-05-14T15:29:46.023Z,1.4
2023-05-14T15:31:00.354Z,1.2
2023-05-14T15:32:14.581Z,1.6
2023-05-14T15:33:28.811Z,1.3
2023-05-14T15:34:43.127Z,1.3
2023-05-14T15:35:57.355Z,1.5
2023-05-14T15:37:11.582Z,1.1
2023-05-14T15:38:25.812Z,1.4
2023-05-14T15:39:40.047Z,1.3
2023-05-14T15:40:54.341Z,1
2023-05-14T15:42:08.570Z,1.5
2023-05-14T15:43:22.799Z,1.2
2023-05-14T15:44:37.041Z,1.2
2023-05-14T15:45:51.256Z,1.2
2023-05-14T15:47:05.559Z,1.4
2023-05-14T15:48:19.796Z,1.3
2023-05-14T15:49:34.143Z,1.6
2023-05-14T15:50:48.380Z,1.3
2023-05-14T15:52:02.599Z,1.1
2023-05-14T15:53:16.909Z,1.4
2023-05-14T15:54:31.145Z,1.5
2023-05-14T15:55:45.369Z,1.5
2023-05-14T15:56:59.744Z,1.4
2023-05-14T15:58:13.960Z,1.6
2023-05-14T15:59:28.262Z,1.7
2023-05-14T16:00:42.501Z,1.9
2023-05-14T16:01:56.732Z,1.5
2023-05-14T16:03:11.088Z,1.9
2023-05-14T16:04:25.311Z,1.3
2023-05-14T16:05:39.600Z,1.7
2023-05-14T16:06:53.841Z,1.6
2023-05-14T16:08:08.079Z,1.5
2023-05-14T16:09:22.298Z,1.4
2023-05-14T16:10:36.520Z,1.3
2023-05-14T16:11:50.831Z,1.5
2023-05-14T16:13:05.077Z,1.3
2023-05-14T16:14:19.297Z,1.5
2023-05-14T16:15:33.512Z,1.3
2023-05-14T16:16:47.750Z,1.1
2023-05-14T16:18:02.058Z,1.5
2023-05-14T16:19:16.280Z,1.1
2023-05-14T16:20:30.518Z,1
2023-05-14T16:21:44.743Z,1
2023-05-14T16:22:58.975Z,1.1
2023-05-14T16:24:13.277Z,1.3
2023-05-14T16:25:27.516Z,1.5
2023-05-14T16:26:41.737Z,1.2
2023-05-14T16:27:55.969Z,1.3
2023-05-14T16:29:10.339Z,1.3
2023-05-14T16:30:24.632Z,1
2023-05-14T16:31:38.866Z,1.4
2023-05-14T16:32:53.105Z,1.3
2023-05-14T16:34:07.321Z,1.2
2023-05-14T16:35:21.556Z,1.4
2023-05-14T16:36:35.855Z,1.3
2023-05-14T16:37:50.102Z,1.2
2023-05-14T16:39:04.328Z,1.1
2023-05-14T16:40:18.548Z,1.3
2023-05-14T16:41:32.771Z,1.2
2023-05-14T16:42:47.078Z,1
2023-05-14T16:44:01.315Z,1.2
2023-05-14T16:45:15.542Z,1.1
2023-05-14T16:46:29.760Z,1.3
2023-05-14T16:47:43.986Z,1.4
2023-05-14T16:48:58.296Z,1.9
2023-05-14T16:50:12.531Z,1.2
2023-05-14T16:51:26.753Z,1.6
2023-05-14T16:52:40.979Z,1.6
2023-05-14T16:53:55.207Z,1.8
2023-05-14T16:55:09.512Z,1.4
2023-05-14T16:56:23.746Z,1.6
2023-05-14T16:57:37.982Z,1.5
2023-05-14T16:58:52.215Z,1.1
2023-05-14T17:00:06.496Z,1.2
2023-05-14T17:01:20.798Z,1.2
2023-05-14T17:02:35.079Z,1.4
2023-05-14T17:03:48.379Z,1.4
2023-05-14T17:05:02.604Z,1.5
2023-05-14T17:06:16.891Z,1.7
2023-05-14T17:07:31.136Z,1.2
2023-05-14T17:08:45.361Z,1.4
2023-05-14T17:09:59.593Z,1.1
2023-05-14T17:11:13.816Z,1.4
2023-05-14T17:12:28.111Z,1.2
2023-05-14T17:13:42.357Z,1.3
2023-05-14T17:14:56.592Z,1.2
2023-05-14T17:16:10.806Z,1.3